sensor_id;sensor_type;location;lat;lon;timestamp;P1;durP1;ratioP1;P2;durP2;ratioP2
45382;SDS011;42455;51.660;5.824;2023-04-03T00:01:26;6.0;;;5.0;;
45382;SDS011;42455;51.660;5.824;2023-04-03T00:06:32;7.0;;;6.0;;
45382;SDS011;42455;51.660;5.824;2023-04-03T00:11:38;8.0;;;6.0;;
45382;SDS011;42455;51.660;5.824;2023-04-03T00:16:44;7.0;;;6.0;;
45382;SDS011;42455;51.660;5.824;2023-04-03T00:21:50;6.0;;;5.0;;
45382;SDS011;42455;51.660;5.824;2023-04-03T00:26:57;6.0;;;5.0;;
45382;SDS011;42455;51.660;5.824;2023-04-03T00:32:02;6.0;;;5.0;;
45382;SDS011;42455;51.660;5.824;2023-04-03T00:37:08;7.0;;;6.0;;
45382;SDS011;42455;51.660;5.824;2023-04-03T00:42:14;6.5;;;6.0;;
45382;SDS011;42455;51.660;5.824;2023-04-03T00:47:20;6.0;;;6.0;;
45382;SDS011;42455;51.660;5.824;2023-04-03T00:52:27;6.0;;;5.0;;
45382;SDS011;42455;51.660;5.824;2023-04-03T00:57:32;6.0;;;5.0;;
45382;SDS011;42455;51.660;5.824;2023-04-03T01:02:38;4.0;;;4.0;;
45382;SDS011;42455;51.660;5.824;2023-04-03T01:07:44;5.0;;;4.0;;
45382;SDS011;42455;51.660;5.824;2023-04-03T01:12:51;4.5;;;4.0;;
45382;SDS011;42455;51.660;5.824;2023-04-03T01:17:57;5.0;;;4.0;;
45382;SDS011;42455;51.660;5.824;2023-04-03T01:23:46;6.0;;;4.0;;
45382;SDS011;42455;51.660;5.824;2023-04-03T01:28:10;5.0;;;4.0;;
45382;SDS011;42455;51.660;5.824;2023-04-03T01:33:15;5.0;;;4.0;;
45382;SDS011;42455;51.660;5.824;2023-04-03T01:38:22;4.0;;;4.0;;
45382;SDS011;42455;51.660;5.824;2023-04-03T01:43:28;5.0;;;4.0;;
45382;SDS011;42455;51.660;5.824;2023-04-03T01:48:34;4.0;;;3.0;;
45382;SDS011;42455;51.660;5.824;2023-04-03T01:53:40;4.0;;;3.0;;
45382;SDS011;42455;51.660;5.824;2023-04-03T01:58:47;4.0;;;3.0;;
45382;SDS011;42455;51.660;5.824;2023-04-03T02:03:53;5.0;;;3.0;;
45382;SDS011;42455;51.660;5.824;2023-04-03T02:08:59;4.0;;;3.0;;
45382;SDS011;42455;51.660;5.824;2023-04-03T02:14:05;4.0;;;3.0;;
45382;SDS011;42455;51.660;5.824;2023-04-03T02:19:11;4.0;;;3.0;;
45382;SDS011;42455;51.660;5.824;2023-04-03T02:24:17;3.0;;;2.0;;
45382;SDS011;42455;51.660;5.824;2023-04-03T02:29:24;4.0;;;2.0;;
45382;SDS011;42455;51.660;5.824;2023-04-03T02:34:29;4.5;;;3.0;;
45382;SDS011;42455;51.660;5.824;2023-04-03T02:39:35;4.0;;;3.0;;
45382;SDS011;42455;51.660;5.824;2023-04-03T02:44:40;4.0;;;2.0;;
45382;SDS011;42455;51.660;5.824;2023-04-03T02:49:47;4.0;;;2.0;;
45382;SDS011;42455;51.660;5.824;2023-04-03T02:54:53;2.0;;;2.0;;
45382;SDS011;42455;51.660;5.824;2023-04-03T02:59:59;3.0;;;2.0;;
45382;SDS011;42455;51.660;5.824;2023-04-03T03:05:05;5.0;;;2.0;;
45382;SDS011;42455;51.660;5.824;2023-04-03T03:10:11;4.0;;;2.0;;
45382;SDS011;42455;51.660;5.824;2023-04-03T03:15:18;4.0;;;2.0;;
45382;SDS011;42455;51.660;5.824;2023-04-03T03:20:24;4.0;;;3.0;;
45382;SDS011;42455;51.660;5.824;2023-04-03T03:25:30;4.0;;;2.0;;
45382;SDS011;42455;51.660;5.824;2023-04-03T03:30:37;3.5;;;2.0;;
45382;SDS011;42455;51.660;5.824;2023-04-03T03:35:42;3.0;;;2.0;;
45382;SDS011;42455;51.660;5.824;2023-04-03T03:40:49;3.0;;;2.0;;
45382;SDS011;42455;51.660;5.824;2023-04-03T03:45:55;2.0;;;2.0;;
45382;SDS011;42455;51.660;5.824;2023-04-03T03:51:01;4.0;;;2.0;;
45382;SDS011;42455;51.660;5.824;2023-04-03T03:56:07;3.0;;;2.0;;
45382;SDS011;42455;51.660;5.824;2023-04-03T04:01:13;4.0;;;2.0;;
45382;SDS011;42455;51.660;5.824;2023-04-03T04:06:20;4.0;;;2.0;;
45382;SDS011;42455;51.660;5.824;2023-04-03T04:11:26;3.0;;;2.0;;
45382;SDS011;42455;51.660;5.824;2023-04-03T04:16:32;5.0;;;2.0;;
45382;SDS011;42455;51.660;5.824;2023-04-03T04:21:38;4.0;;;2.0;;
45382;SDS011;42455;51.660;5.824;2023-04-03T04:26:45;3.0;;;2.0;;
45382;SDS011;42455;51.660;5.824;2023-04-03T04:31:50;3.0;;;2.0;;
45382;SDS011;42455;51.660;5.824;2023-04-03T04:36:56;3.0;;;2.0;;
45382;SDS011;42455;51.660;5.824;2023-04-03T04:42:01;2.0;;;2.0;;
45382;SDS011;42455;51.660;5.824;2023-04-03T04:47:07;3.0;;;2.0;;
45382;SDS011;42455;51.660;5.824;2023-04-03T04:52:14;3.0;;;2.0;;
45382;SDS011;42455;51.660;5.824;2023-04-03T04:57:20;3.0;;;2.0;;
45382;SDS011;42455;51.660;5.824;2023-04-03T05:02:26;4.0;;;2.0;;
45382;SDS011;42455;51.660;5.824;2023-04-03T05:07:32;2.0;;;2.0;;
45382;SDS011;42455;51.660;5.824;2023-04-03T05:12:38;3.0;;;2.0;;
45382;SDS011;42455;51.660;5.824;2023-04-03T05:17:45;3.0;;;2.0;;
45382;SDS011;42455;51.660;5.824;2023-04-03T05:22:51;2.5;;;2.0;;
45382;SDS011;42455;51.660;5.824;2023-04-03T05:27:57;3.0;;;2.0;;
45382;SDS011;42455;51.660;5.824;2023-04-03T05:33:03;3.0;;;2.0;;
45382;SDS011;42455;51.660;5.824;2023-04-03T05:38:09;3.0;;;2.0;;
45382;SDS011;42455;51.660;5.824;2023-04-03T05:43:16;4.0;;;2.0;;
45382;SDS011;42455;51.660;5.824;2023-04-03T05:48:22;4.0;;;2.0;;
45382;SDS011;42455;51.660;5.824;2023-04-03T05:53:33;4.0;;;2.0;;
45382;SDS011;42455;51.660;5.824;2023-04-03T05:58:34;4.0;;;2.0;;
45382;SDS011;42455;51.660;5.824;2023-04-03T06:03:41;3.0;;;2.0;;
45382;SDS011;42455;51.660;5.824;2023-04-03T06:08:47;5.0;;;2.0;;
45382;SDS011;42455;51.660;5.824;2023-04-03T06:13:53;3.0;;;2.0;;
45382;SDS011;42455;51.660;5.824;2023-04-03T06:18:59;5.0;;;2.0;;
45382;SDS011;42455;51.660;5.824;2023-04-03T06:24:05;4.0;;;2.0;;
45382;SDS011;42455;51.660;5.824;2023-04-03T06:29:11;4.0;;;2.0;;
45382;SDS011;42455;51.660;5.824;2023-04-03T06:34:17;4.0;;;2.0;;
45382;SDS011;42455;51.660;5.824;2023-04-03T06:39:22;4.0;;;2.0;;
45382;SDS011;42455;51.660;5.824;2023-04-03T06:44:28;4.0;;;2.0;;
45382;SDS011;42455;51.660;5.824;2023-04-03T06:49:35;3.0;;;2.0;;
45382;SDS011;42455;51.660;5.824;2023-04-03T06:54:41;3.0;;;2.0;;
45382;SDS011;42455;51.660;5.824;2023-04-03T06:59:47;4.0;;;2.0;;
45382;SDS011;42455;51.660;5.824;2023-04-03T07:04:53;3.0;;;2.0;;
45382;SDS011;42455;51.660;5.824;2023-04-03T07:09:59;4.0;;;2.0;;
45382;SDS011;42455;51.660;5.824;2023-04-03T07:15:05;4.0;;;2.0;;
45382;SDS011;42455;51.660;5.824;2023-04-03T07:20:12;4.0;;;2.0;;
45382;SDS011;42455;51.660;5.824;2023-04-03T07:25:18;3.0;;;2.0;;
45382;SDS011;42455;51.660;5.824;2023-04-03T07:30:24;5.0;;;2.0;;
45382;SDS011;42455;51.660;5.824;2023-04-03T07:35:31;4.0;;;2.0;;
45382;SDS011;42455;51.660;5.824;2023-04-03T07:40:37;4.0;;;2.0;;
45382;SDS011;42455;51.660;5.824;2023-04-03T07:45:43;3.0;;;2.0;;
45382;SDS011;42455;51.660;5.824;2023-04-03T07:50:49;3.0;;;2.0;;
45382;SDS011;42455;51.660;5.824;2023-04-03T07:55:56;3.0;;;2.0;;
45382;SDS011;42455;51.660;5.824;2023-04-03T08:01:02;4.0;;;2.0;;
45382;SDS011;42455;51.660;5.824;2023-04-03T08:06:08;4.0;;;2.0;;
45382;SDS011;42455;51.660;5.824;2023-04-03T08:11:14;3.0;;;1.0;;
45382;SDS011;42455;51.660;5.824;2023-04-03T08:16:20;3.5;;;2.0;;
45382;SDS011;42455;51.660;5.824;2023-04-03T08:21:26;5.0;;;2.0;;
45382;SDS011;42455;51.660;5.824;2023-04-03T08:26:31;2.0;;;1.0;;
45382;SDS011;42455;51.660;5.824;2023-04-03T08:31:38;3.0;;;2.0;;
45382;SDS011;42455;51.660;5.824;2023-04-03T08:36:44;4.0;;;1.0;;
45382;SDS011;42455;51.660;5.824;2023-04-03T08:41:49;3.0;;;2.0;;
45382;SDS011;42455;51.660;5.824;2023-04-03T08:47:02;3.0;;;1.0;;
45382;SDS011;42455;51.660;5.824;2023-04-03T08:52:02;2.0;;;1.0;;
45382;SDS011;42455;51.660;5.824;2023-04-03T08:57:09;3.0;;;1.0;;
45382;SDS011;42455;51.660;5.824;2023-04-03T09:02:25;1.0;;;1.0;;
45382;SDS011;42455;51.660;5.824;2023-04-03T09:07:33;1.0;;;1.0;;
45382;SDS011;42455;51.660;5.824;2023-04-03T09:12:27;2.0;;;1.0;;
45382;SDS011;42455;51.660;5.824;2023-04-03T09:18:00;1.0;;;0.0;;
45382;SDS011;42455;51.660;5.824;2023-04-03T09:22:42;2.0;;;1.0;;
45382;SDS011;42455;51.660;5.824;2023-04-03T09:27:45;1.0;;;0.0;;
45382;SDS011;42455;51.660;5.824;2023-04-03T09:32:52;0.0;;;0.0;;
45382;SDS011;42455;51.660;5.824;2023-04-03T09:37:58;1.0;;;0.0;;
45382;SDS011;42455;51.660;5.824;2023-04-03T09:43:21;0.0;;;0.0;;
45382;SDS011;42455;51.660;5.824;2023-04-03T09:48:21;0.5;;;0.0;;
45382;SDS011;42455;51.660;5.824;2023-04-03T09:53:26;1.0;;;0.0;;
45382;SDS011;42455;51.660;5.824;2023-04-03T09:58:39;0.0;;;0.0;;
45382;SDS011;42455;51.660;5.824;2023-04-03T10:03:29;1.0;;;0.0;;
45382;SDS011;42455;51.660;5.824;2023-04-03T10:08:35;0.0;;;0.0;;
45382;SDS011;42455;51.660;5.824;2023-04-03T10:13:57;1.0;;;0.0;;
45382;SDS011;42455;51.660;5.824;2023-04-03T10:18:48;1.0;;;0.0;;
45382;SDS011;42455;51.660;5.824;2023-04-03T10:23:58;1.0;;;0.0;;
45382;SDS011;42455;51.660;5.824;2023-04-03T10:29:01;1.0;;;0.0;;
45382;SDS011;42455;51.660;5.824;2023-04-03T10:34:16;1.0;;;0.0;;
45382;SDS011;42455;51.660;5.824;2023-04-03T10:39:27;2.0;;;0.0;;
45382;SDS011;42455;51.660;5.824;2023-04-03T10:44:36;1.0;;;0.0;;
45382;SDS011;42455;51.660;5.824;2023-04-03T10:49:45;1.0;;;0.0;;
45382;SDS011;42455;51.660;5.824;2023-04-03T10:54:41;1.0;;;0.0;;
45382;SDS011;42455;51.660;5.824;2023-04-03T10:59:37;1.0;;;0.0;;
45382;SDS011;42455;51.660;5.824;2023-04-03T11:04:41;1.0;;;0.0;;
45382;SDS011;42455;51.660;5.824;2023-04-03T11:09:48;1.0;;;0.0;;
45382;SDS011;42455;51.660;5.824;2023-04-03T11:14:54;1.0;;;0.0;;
45382;SDS011;42455;51.660;5.824;2023-04-03T11:20:08;1.0;;;0.0;;
45382;SDS011;42455;51.660;5.824;2023-04-03T11:25:14;1.0;;;0.0;;
45382;SDS011;42455;51.660;5.824;2023-04-03T11:30:14;1.0;;;1.0;;
45382;SDS011;42455;51.660;5.824;2023-04-03T11:35:18;2.0;;;0.0;;
45382;SDS011;42455;51.660;5.824;2023-04-03T11:40:25;1.0;;;0.0;;
45382;SDS011;42455;51.660;5.824;2023-04-03T11:45:55;2.0;;;1.0;;
45382;SDS011;42455;51.660;5.824;2023-04-03T11:50:40;2.0;;;1.0;;
45382;SDS011;42455;51.660;5.824;2023-04-03T11:56:01;1.0;;;1.0;;
45382;SDS011;42455;51.660;5.824;2023-04-03T12:01:09;1.0;;;1.0;;
45382;SDS011;42455;51.660;5.824;2023-04-03T12:05:56;1.0;;;1.0;;
45382;SDS011;42455;51.660;5.824;2023-04-03T12:11:30;2.0;;;1.0;;
45382;SDS011;42455;51.660;5.824;2023-04-03T12:16:08;1.0;;;1.0;;
45382;SDS011;42455;51.660;5.824;2023-04-03T12:21:13;3.5;;;1.0;;
45382;SDS011;42455;51.660;5.824;2023-04-03T12:26:25;2.0;;;1.0;;
45382;SDS011;42455;51.660;5.824;2023-04-03T12:31:25;1.5;;;1.0;;
45382;SDS011;42455;51.660;5.824;2023-04-03T12:36:37;1.0;;;1.0;;
45382;SDS011;42455;51.660;5.824;2023-04-03T12:42:08;1.0;;;1.0;;
45382;SDS011;42455;51.660;5.824;2023-04-03T12:46:47;1.0;;;1.0;;
45382;SDS011;42455;51.660;5.824;2023-04-03T12:51:48;1.0;;;1.0;;
45382;SDS011;42455;51.660;5.824;2023-04-03T12:57:09;1.0;;;1.0;;
45382;SDS011;42455;51.660;5.824;2023-04-03T13:02:00;2.0;;;1.0;;
45382;SDS011;42455;51.660;5.824;2023-04-03T13:07:17;2.0;;;1.0;;
45382;SDS011;42455;51.660;5.824;2023-04-03T13:12:16;2.0;;;1.0;;
45382;SDS011;42455;51.660;5.824;2023-04-03T13:17:18;3.0;;;1.0;;
45382;SDS011;42455;51.660;5.824;2023-04-03T13:22:34;2.0;;;1.0;;
45382;SDS011;42455;51.660;5.824;2023-04-03T13:27:31;2.0;;;1.0;;
45382;SDS011;42455;51.660;5.824;2023-04-03T13:32:37;2.0;;;1.0;;
45382;SDS011;42455;51.660;5.824;2023-04-03T13:37:52;1.0;;;1.0;;
45382;SDS011;42455;51.660;5.824;2023-04-03T13:43:01;3.0;;;1.0;;
45382;SDS011;42455;51.660;5.824;2023-04-03T13:48:07;2.0;;;1.0;;
45382;SDS011;42455;51.660;5.824;2023-04-03T13:53:03;2.0;;;1.0;;
45382;SDS011;42455;51.660;5.824;2023-04-03T13:58:20;1.0;;;1.0;;
45382;SDS011;42455;51.660;5.824;2023-04-03T14:03:26;2.0;;;1.0;;
45382;SDS011;42455;51.660;5.824;2023-04-03T14:08:21;2.0;;;1.0;;
45382;SDS011;42455;51.660;5.824;2023-04-03T14:13:29;2.0;;;1.0;;
45382;SDS011;42455;51.660;5.824;2023-04-03T14:18:33;2.0;;;1.0;;
45382;SDS011;42455;51.660;5.824;2023-04-03T14:23:39;2.0;;;1.0;;
45382;SDS011;42455;51.660;5.824;2023-04-03T14:28:45;2.0;;;1.0;;
45382;SDS011;42455;51.660;5.824;2023-04-03T14:33:51;2.0;;;1.0;;
45382;SDS011;42455;51.660;5.824;2023-04-03T14:38:56;3.0;;;1.0;;
45382;SDS011;42455;51.660;5.824;2023-04-03T14:44:02;2.0;;;1.0;;
45382;SDS011;42455;51.660;5.824;2023-04-03T14:49:13;3.0;;;1.0;;
45382;SDS011;42455;51.660;5.824;2023-04-03T14:54:16;2.0;;;1.0;;
45382;SDS011;42455;51.660;5.824;2023-04-03T14:59:21;2.0;;;1.0;;
45382;SDS011;42455;51.660;5.824;2023-04-03T15:04:27;2.0;;;1.0;;
45382;SDS011;42455;51.660;5.824;2023-04-03T15:09:34;2.0;;;1.0;;
45382;SDS011;42455;51.660;5.824;2023-04-03T15:14:39;2.0;;;1.0;;
45382;SDS011;42455;51.660;5.824;2023-04-03T15:19:45;2.0;;;1.0;;
45382;SDS011;42455;51.660;5.824;2023-04-03T15:24:52;2.0;;;1.0;;
45382;SDS011;42455;51.660;5.824;2023-04-03T15:29:58;2.0;;;1.0;;
45382;SDS011;42455;51.660;5.824;2023-04-03T15:35:05;3.0;;;1.0;;
45382;SDS011;42455;51.660;5.824;2023-04-03T15:40:11;2.0;;;1.0;;
45382;SDS011;42455;51.660;5.824;2023-04-03T15:45:17;1.0;;;1.0;;
45382;SDS011;42455;51.660;5.824;2023-04-03T15:50:23;3.0;;;1.0;;
45382;SDS011;42455;51.660;5.824;2023-04-03T15:55:30;1.5;;;1.0;;
45382;SDS011;42455;51.660;5.824;2023-04-03T16:00:35;2.0;;;1.0;;
45382;SDS011;42455;51.660;5.824;2023-04-03T16:05:41;2.0;;;1.0;;
45382;SDS011;42455;51.660;5.824;2023-04-03T16:10:48;2.0;;;1.0;;
45382;SDS011;42455;51.660;5.824;2023-04-03T16:15:54;2.0;;;1.0;;
45382;SDS011;42455;51.660;5.824;2023-04-03T16:21:00;4.0;;;1.0;;
45382;SDS011;42455;51.660;5.824;2023-04-03T16:26:05;3.0;;;1.0;;
45382;SDS011;42455;51.660;5.824;2023-04-03T16:31:11;2.0;;;1.0;;
45382;SDS011;42455;51.660;5.824;2023-04-03T16:36:18;2.0;;;1.0;;
45382;SDS011;42455;51.660;5.824;2023-04-03T16:41:24;2.0;;;1.0;;
45382;SDS011;42455;51.660;5.824;2023-04-03T16:46:30;2.0;;;1.0;;
45382;SDS011;42455;51.660;5.824;2023-04-03T16:51:36;3.0;;;1.0;;
45382;SDS011;42455;51.660;5.824;2023-04-03T16:56:43;3.0;;;1.0;;
45382;SDS011;42455;51.660;5.824;2023-04-03T17:01:49;2.0;;;1.0;;
45382;SDS011;42455;51.660;5.824;2023-04-03T17:06:55;3.0;;;1.0;;
45382;SDS011;42455;51.660;5.824;2023-04-03T17:12:01;2.5;;;1.0;;
45382;SDS011;42455;51.660;5.824;2023-04-03T17:17:07;2.0;;;1.0;;
45382;SDS011;42455;51.660;5.824;2023-04-03T17:22:14;2.0;;;1.0;;
45382;SDS011;42455;51.660;5.824;2023-04-03T17:27:20;3.0;;;1.0;;
45382;SDS011;42455;51.660;5.824;2023-04-03T17:32:26;2.0;;;1.0;;
45382;SDS011;42455;51.660;5.824;2023-04-03T17:37:32;3.0;;;1.0;;
45382;SDS011;42455;51.660;5.824;2023-04-03T17:42:39;3.0;;;1.0;;
45382;SDS011;42455;51.660;5.824;2023-04-03T17:47:45;2.0;;;1.0;;
45382;SDS011;42455;51.660;5.824;2023-04-03T17:52:51;2.0;;;1.0;;
45382;SDS011;42455;51.660;5.824;2023-04-03T17:57:57;2.0;;;1.0;;
45382;SDS011;42455;51.660;5.824;2023-04-03T18:03:04;3.0;;;1.0;;
45382;SDS011;42455;51.660;5.824;2023-04-03T18:08:09;2.0;;;1.0;;
45382;SDS011;42455;51.660;5.824;2023-04-03T18:13:15;3.0;;;1.0;;
45382;SDS011;42455;51.660;5.824;2023-04-03T18:18:21;2.0;;;2.0;;
45382;SDS011;42455;51.660;5.824;2023-04-03T18:23:26;4.0;;;2.0;;
45382;SDS011;42455;51.660;5.824;2023-04-03T18:28:32;3.0;;;2.0;;
45382;SDS011;42455;51.660;5.824;2023-04-03T18:33:39;3.0;;;1.0;;
45382;SDS011;42455;51.660;5.824;2023-04-03T18:38:45;3.0;;;2.0;;
45382;SDS011;42455;51.660;5.824;2023-04-03T18:43:51;3.0;;;1.0;;
45382;SDS011;42455;51.660;5.824;2023-04-03T18:48:57;4.0;;;2.0;;
45382;SDS011;42455;51.660;5.824;2023-04-03T18:54:04;2.0;;;1.0;;
45382;SDS011;42455;51.660;5.824;2023-04-03T18:59:10;3.0;;;1.0;;
45382;SDS011;42455;51.660;5.824;2023-04-03T19:04:16;2.0;;;1.5;;
45382;SDS011;42455;51.660;5.824;2023-04-03T19:09:22;4.0;;;2.0;;
45382;SDS011;42455;51.660;5.824;2023-04-03T19:14:28;2.5;;;2.0;;
45382;SDS011;42455;51.660;5.824;2023-04-03T19:19:34;4.0;;;2.0;;
45382;SDS011;42455;51.660;5.824;2023-04-03T19:24:41;4.0;;;2.0;;
45382;SDS011;42455;51.660;5.824;2023-04-03T19:29:47;2.5;;;1.0;;
45382;SDS011;42455;51.660;5.824;2023-04-03T19:34:55;3.0;;;2.0;;
45382;SDS011;42455;51.660;5.824;2023-04-03T19:39:59;3.0;;;2.0;;
45382;SDS011;42455;51.660;5.824;2023-04-03T19:45:06;2.0;;;2.0;;
45382;SDS011;42455;51.660;5.824;2023-04-03T19:50:12;3.0;;;2.0;;
45382;SDS011;42455;51.660;5.824;2023-04-03T19:55:18;3.0;;;2.0;;
45382;SDS011;42455;51.660;5.824;2023-04-03T20:00:24;4.0;;;2.0;;
45382;SDS011;42455;51.660;5.824;2023-04-03T20:05:30;3.0;;;1.0;;
45382;SDS011;42455;51.660;5.824;2023-04-03T20:10:35;3.0;;;2.0;;
45382;SDS011;42455;51.660;5.824;2023-04-03T20:15:42;2.0;;;1.0;;
45382;SDS011;42455;51.660;5.824;2023-04-03T20:20:52;2.5;;;2.0;;
45382;SDS011;42455;51.660;5.824;2023-04-03T20:25:54;3.0;;;2.0;;
45382;SDS011;42455;51.660;5.824;2023-04-03T20:30:58;3.0;;;2.0;;
45382;SDS011;42455;51.660;5.824;2023-04-03T20:36:05;4.0;;;2.0;;
45382;SDS011;42455;51.660;5.824;2023-04-03T20:41:11;3.0;;;2.0;;
45382;SDS011;42455;51.660;5.824;2023-04-03T20:46:17;3.0;;;2.0;;
45382;SDS011;42455;51.660;5.824;2023-04-03T20:51:23;4.0;;;2.0;;
45382;SDS011;42455;51.660;5.824;2023-04-03T20:56:29;3.0;;;1.0;;
45382;SDS011;42455;51.660;5.824;2023-04-03T21:01:36;2.0;;;2.0;;
45382;SDS011;42455;51.660;5.824;2023-04-03T21:22:01;5.0;;;2.0;;
45382;SDS011;42455;51.660;5.824;2023-04-03T21:27:07;4.0;;;2.0;;
45382;SDS011;42455;51.660;5.824;2023-04-03T21:32:13;3.0;;;2.0;;
45382;SDS011;42455;51.660;5.824;2023-04-03T21:37:19;4.0;;;2.0;;
45382;SDS011;42455;51.660;5.824;2023-04-03T21:42:25;3.0;;;2.0;;
45382;SDS011;42455;51.660;5.824;2023-04-03T21:47:32;3.0;;;2.0;;
45382;SDS011;42455;51.660;5.824;2023-04-03T21:52:38;3.0;;;2.0;;
45382;SDS011;42455;51.660;5.824;2023-04-03T21:57:48;3.0;;;2.0;;
45382;SDS011;42455;51.660;5.824;2023-04-03T22:02:50;3.0;;;2.0;;
45382;SDS011;42455;51.660;5.824;2023-04-03T22:07:56;4.0;;;2.0;;
45382;SDS011;42455;51.660;5.824;2023-04-03T22:13:03;3.0;;;2.0;;
45382;SDS011;42455;51.660;5.824;2023-04-03T22:18:08;4.0;;;2.0;;
45382;SDS011;42455;51.660;5.824;2023-04-03T22:23:14;3.0;;;2.0;;
45382;SDS011;42455;51.660;5.824;2023-04-03T22:28:19;3.0;;;2.0;;
45382;SDS011;42455;51.660;5.824;2023-04-03T22:33:25;3.0;;;2.0;;
45382;SDS011;42455;51.660;5.824;2023-04-03T22:38:32;4.0;;;2.0;;
45382;SDS011;42455;51.660;5.824;2023-04-03T22:43:38;3.0;;;2.0;;
45382;SDS011;42455;51.660;5.824;2023-04-03T22:48:44;5.0;;;3.0;;
45382;SDS011;42455;51.660;5.824;2023-04-03T22:53:50;4.0;;;2.0;;
45382;SDS011;42455;51.660;5.824;2023-04-03T22:58:56;3.0;;;2.0;;
45382;SDS011;42455;51.660;5.824;2023-04-03T23:04:03;4.0;;;2.0;;
45382;SDS011;42455;51.660;5.824;2023-04-03T23:09:09;4.0;;;2.0;;
45382;SDS011;42455;51.660;5.824;2023-04-03T23:14:15;3.0;;;2.0;;
45382;SDS011;42455;51.660;5.824;2023-04-03T23:19:21;3.0;;;2.0;;
45382;SDS011;42455;51.660;5.824;2023-04-03T23:24:27;4.0;;;2.0;;
45382;SDS011;42455;51.660;5.824;2023-04-03T23:29:34;4.0;;;2.0;;
45382;SDS011;42455;51.660;5.824;2023-04-03T23:34:40;4.0;;;2.0;;
45382;SDS011;42455;51.660;5.824;2023-04-03T23:39:46;3.0;;;2.0;;
45382;SDS011;42455;51.660;5.824;2023-04-03T23:44:52;4.0;;;2.0;;
45382;SDS011;42455;51.660;5.824;2023-04-03T23:49:59;4.0;;;2.0;;
45382;SDS011;42455;51.660;5.824;2023-04-03T23:55:05;5.0;;;2.0;;
